createdAt,value
2023-06-11T00:03:48.710Z,17.38
2023-06-11T00:13:52.009Z,17.21
2023-06-11T00:23:54.584Z,17.03
2023-06-11T00:33:57.113Z,16.85
2023-06-11T00:43:59.431Z,16.69
2023-06-11T00:54:01.694Z,16.53
2023-06-11T01:04:06.803Z,16.36
2023-06-11T01:14:14.534Z,16.22
2023-06-11T01:24:22.865Z,16.10
2023-06-11T01:34:26.899Z,15.99
2023-06-11T01:44:29.715Z,15.84
2023-06-11T01:54:31.991Z,15.75
2023-06-11T02:04:34.234Z,15.71
2023-06-11T02:14:36.699Z,15.70
2023-06-11T02:24:38.949Z,15.69
2023-06-11T02:34:41.330Z,15.61
2023-06-11T02:44:43.605Z,15.47
2023-06-11T02:54:46.161Z,15.35
2023-06-11T03:04:48.391Z,15.27
2023-06-11T03:14:51.177Z,15.17
2023-06-11T03:24:53.433Z,15.07
2023-06-11T03:34:55.702Z,14.97
2023-06-11T03:44:57.883Z,14.89
2023-06-11T03:55:00.253Z,14.86
2023-06-11T04:05:02.904Z,14.83
2023-06-11T04:15:05.641Z,14.85
2023-06-11T04:25:08.578Z,14.93
2023-06-11T04:35:13.700Z,15.06
2023-06-11T04:45:20.388Z,15.22
2023-06-11T04:55:26.421Z,15.42
2023-06-11T05:05:29.166Z,15.68
2023-06-11T05:15:31.751Z,15.96
2023-06-11T05:25:34.414Z,16.29
2023-06-11T05:35:37.152Z,16.61
2023-06-11T05:45:47.536Z,16.96
2023-06-11T05:55:52.252Z,17.35
2023-06-11T06:05:57.465Z,17.75
2023-06-11T06:16:02.143Z,18.21
2023-06-11T06:26:05.221Z,18.76
2023-06-11T06:36:07.944Z,19.37
2023-06-11T06:46:11.638Z,19.85
2023-06-11T06:56:14.979Z,20.20
2023-06-11T07:06:17.679Z,20.68
2023-06-11T07:16:20.589Z,21.04
2023-06-11T07:26:23.574Z,21.40
2023-06-11T07:36:25.943Z,21.76
2023-06-11T07:46:28.329Z,22.17
2023-06-11T07:56:31.001Z,22.50
2023-06-11T08:06:33.628Z,22.88
2023-06-11T08:16:37.000Z,23.37
2023-06-11T08:26:40.025Z,23.58
2023-06-11T08:36:43.228Z,23.75
2023-06-11T08:46:46.870Z,24.02
2023-06-11T08:56:50.113Z,24.33
2023-06-11T09:06:54.003Z,24.52
2023-06-11T09:16:56.678Z,24.87
2023-06-11T09:27:00.223Z,25.19
2023-06-11T09:37:05.629Z,25.39
2023-06-11T09:47:12.804Z,25.68
2023-06-11T09:57:17.919Z,26.03
2023-06-11T10:07:22.700Z,26.47
2023-06-11T10:17:25.886Z,26.73
2023-06-11T10:27:43.104Z,26.99
2023-06-11T10:37:46.059Z,27.35
2023-06-11T10:47:52.288Z,27.50
2023-06-11T10:57:56.118Z,28.08
2023-06-11T11:08:02.818Z,28.83
2023-06-11T11:18:05.945Z,29.07
2023-06-11T11:28:10.947Z,30.14
2023-06-11T11:38:17.192Z,30.01
2023-06-11T11:48:20.680Z,30.16
2023-06-11T11:58:25.215Z,29.32
2023-06-11T12:08:30.593Z,29.95
2023-06-11T12:18:36.239Z,29.14
2023-06-11T12:28:42.654Z,28.35
2023-06-11T12:38:47.362Z,30.07
2023-06-11T12:48:50.490Z,31.17
2023-06-11T12:58:53.416Z,31.96
2023-06-11T13:08:56.198Z,32.65
2023-06-11T13:19:05.158Z,32.10
2023-06-11T13:29:11.002Z,31.35
2023-06-11T13:39:15.232Z,30.18
2023-06-11T13:49:19.173Z,31.51
2023-06-11T13:59:26.204Z,33.20
2023-06-11T14:09:29.629Z,32.39
2023-06-11T14:29:38.969Z,30.58
2023-06-11T14:39:45.420Z,31.64
2023-06-11T14:49:48.511Z,32.67
2023-06-11T14:59:51.899Z,32.08
2023-06-11T15:09:54.898Z,31.31
2023-06-11T15:20:00.150Z,30.80
2023-06-11T15:30:05.654Z,29.78
2023-06-11T15:40:10.264Z,29.49
2023-06-11T15:50:14.330Z,29.05
2023-06-11T16:00:18.167Z,28.91
2023-06-11T16:10:21.416Z,28.85
2023-06-11T16:20:27.638Z,28.71
2023-06-11T16:30:31.103Z,28.61
2023-06-11T16:40:34.738Z,29.12
2023-06-11T16:50:37.698Z,29.06
2023-06-11T17:00:40.600Z,27.92
2023-06-11T17:10:46.447Z,27.27
2023-06-11T17:20:49.625Z,26.62
2023-06-11T17:30:53.463Z,26.19
2023-06-11T17:40:57.019Z,25.84
2023-06-11T17:51:00.312Z,25.36
2023-06-11T18:01:04.416Z,25.08
2023-06-11T18:11:08.143Z,24.56
2023-06-11T18:21:11.719Z,24.76
2023-06-11T18:31:17.720Z,24.37
2023-06-11T18:41:24.428Z,23.78
2023-06-11T18:51:29.143Z,23.32
2023-06-11T19:01:33.350Z,22.87
2023-06-11T19:11:36.653Z,22.48
2023-06-11T19:31:43.602Z,21.69
2023-06-11T19:41:46.799Z,21.24
2023-06-11T19:51:50.378Z,20.77
2023-06-11T20:01:55.479Z,20.38
2023-06-11T20:12:06.018Z,20.02
2023-06-11T20:22:09.179Z,19.69
2023-06-11T20:32:14.214Z,19.41
2023-06-11T20:42:17.981Z,19.20
2023-06-11T20:52:21.616Z,19.01
2023-06-11T21:02:24.827Z,18.81
2023-06-11T21:12:29.996Z,18.60
2023-06-11T21:22:33.131Z,18.45
2023-06-11T21:32:36.309Z,18.34
2023-06-11T21:42:40.288Z,18.26
2023-06-11T21:52:43.834Z,18.25
2023-06-11T22:02:46.505Z,18.15
2023-06-11T22:12:50.574Z,18.07
2023-06-11T22:22:53.440Z,18.02
2023-06-11T22:32:59.356Z,18.09
2023-06-11T22:43:04.157Z,18.22
2023-06-11T22:53:06.887Z,18.06
2023-06-11T23:03:10.908Z,17.77
2023-06-11T23:13:13.492Z,17.51
2023-06-11T23:23:17.464Z,17.27
2023-06-11T23:33:20.263Z,17.01
2023-06-11T23:43:22.740Z,16.76
2023-06-11T23:53:26.846Z,16.51
